Time;durP1;ratioP1;P1;durP2;ratioP2;P2;SDS_P1;SDS_P2;PMS_P1;PMS_P2;Temp;Humidity;BMP_temperature;BMP_pressure;BME280_temperature;BME280_humidity;BME280_pressure;Samples;Min_cycle;Max_cycle;Signal;HPM_P1;HPM_P2
2022/09/12 00:01:03;;;;;;;15.52;14.40;;;;;;;;;;5204628;28;20032;-68
2022/09/12 00:03:33;;;;;;;15.43;14.10;;;;;;;;;;5221615;28;20044;-68
2022/09/12 00:06:07;;;;;;;14.38;13.27;;;;;;;;;;5222040;28;20025;-67
2022/09/12 00:08:38;;;;;;;13.18;12.27;;;;;;;;;;5222622;28;20021;-67
2022/09/12 00:11:09;;;;;;;14.80;13.05;;;;;;;;;;5215816;28;20017;-67
2022/09/12 00:13:40;;;;;;;13.65;12.68;;;;;;;;;;5221988;28;20441;-67
2022/09/12 00:16:15;;;;;;;14.02;12.82;;;;;;;;;;5222679;28;20039;-67
2022/09/12 00:18:46;;;;;;;14.57;13.60;;;;;;;;;;5221703;28;20035;-68
2022/09/12 00:21:16;;;;;;;15.35;14.00;;;;;;;;;;5222181;28;20100;-68
2022/09/12 00:23:47;;;;;;;12.70;11.73;;;;;;;;;;5221820;28;20057;-68
2022/09/12 00:26:18;;;;;;;14.95;13.65;;;;;;;;;;5222108;28;20029;-68
2022/09/12 00:28:48;;;;;;;11.65;10.85;;;;;;;;;;5222046;28;20029;-68
2022/09/12 00:31:20;;;;;;;14.32;13.13;;;;;;;;;;5221996;28;20040;-69
2022/09/12 00:33:50;;;;;;;12.40;11.50;;;;;;;;;;5221563;28;20017;-69
2022/09/12 00:36:22;;;;;;;14.57;13.38;;;;;;;;;;5222359;28;20534;-69
2022/09/12 00:38:53;;;;;;;13.15;11.90;;;;;;;;;;5212730;28;20021;-69
2022/09/12 00:44:21;;;;;;;15.05;13.95;;;;;;;;;;5140662;28;20498;-68
2022/09/12 00:46:54;;;;;;;14.18;13.07;;;;;;;;;;5142191;28;20392;-68
2022/09/12 00:49:24;;;;;;;16.17;14.90;;;;;;;;;;5142608;28;20023;-69
2022/09/12 00:51:56;;;;;;;14.60;13.52;;;;;;;;;;5141089;28;20034;-71
2022/09/12 00:54:29;;;;;;;16.63;14.73;;;;;;;;;;5140889;28;20022;-68
2022/09/12 00:57:01;;;;;;;15.52;14.32;;;;;;;;;;5142508;28;20022;-68
2022/09/12 00:59:36;;;;;;;15.63;14.52;;;;;;;;;;5141939;28;20097;-68
2022/09/12 01:02:07;;;;;;;18.23;16.60;;;;;;;;;;5141876;28;20037;-68
2022/09/12 01:04:39;;;;;;;16.85;15.45;;;;;;;;;;5142023;28;20019;-68
2022/09/12 01:07:10;;;;;;;16.30;15.10;;;;;;;;;;5141141;28;20033;-68
2022/09/12 01:09:41;;;;;;;17.80;16.10;;;;;;;;;;5133936;28;20069;-69
2022/09/12 01:12:13;;;;;;;15.50;14.32;;;;;;;;;;5142514;28;20027;-69
2022/09/12 01:14:43;;;;;;;18.40;16.77;;;;;;;;;;5142068;28;20023;-68
2022/09/12 01:17:14;;;;;;;17.48;16.25;;;;;;;;;;5142338;28;20435;-68
2022/09/12 01:20:07;;;;;;;16.55;14.93;;;;;;;;;;5142096;28;20034;-69
2022/09/12 01:23:04;;;;;;;16.60;15.40;;;;;;;;;;5125606;28;20035;-68
2022/09/12 01:25:53;;;;;;;17.45;16.17;;;;;;;;;;5145574;28;20053;-68
2022/09/12 01:28:35;;;;;;;17.08;15.70;;;;;;;;;;5145794;28;20019;-68
2022/09/12 01:31:23;;;;;;;18.73;17.27;;;;;;;;;;5146217;28;20041;-68
2022/09/12 01:33:54;;;;;;;18.88;17.30;;;;;;;;;;5145754;28;20374;-68
2022/09/12 01:36:27;;;;;;;19.63;18.23;;;;;;;;;;5146383;28;20023;-68
2022/09/12 01:38:58;;;;;;;19.35;17.85;;;;;;;;;;5145720;28;20422;-68
2022/09/12 01:41:31;;;;;;;17.70;16.25;;;;;;;;;;5146285;28;20025;-68
2022/09/12 01:44:01;;;;;;;17.15;15.85;;;;;;;;;;5145995;28;20030;-68
2022/09/12 01:46:41;;;;;;;19.80;18.08;;;;;;;;;;5145791;28;20022;-68
2022/09/12 01:49:11;;;;;;;;;;;;;;;;;;5146004;28;20031;-68
2022/09/12 01:51:42;;;;;;;;;;;;;;;;;;5146053;28;20389;-68
2022/09/12 01:54:15;;;;;;;17.83;16.37;;;;;;;;;;5145172;28;20000;-68
2022/09/12 01:56:47;;;;;;;19.05;17.35;;;;;;;;;;5145759;28;20034;-68
2022/09/12 01:59:33;;;;;;;19.08;17.58;;;;;;;;;;5139179;28;20027;-68
2022/09/12 02:02:24;;;;;;;18.17;16.50;;;;;;;;;;5125364;28;20023;-68
2022/09/12 02:04:58;;;;;;;20.38;18.48;;;;;;;;;;5124621;29;20035;-68
2022/09/12 02:07:35;;;;;;;19.23;17.48;;;;;;;;;;5125667;28;20023;-67
2022/09/12 02:10:09;;;;;;;16.63;15.32;;;;;;;;;;5124875;28;20388;-68
2022/09/12 02:12:44;;;;;;;17.75;16.05;;;;;;;;;;5124390;29;20031;-68
2022/09/12 02:15:16;;;;;;;18.25;16.67;;;;;;;;;;5124921;28;20030;-68
2022/09/12 02:17:48;;;;;;;20.10;18.42;;;;;;;;;;5123866;28;20028;-68
2022/09/12 02:20:20;;;;;;;20.83;17.60;;;;;;;;;;5125450;28;20031;-68
2022/09/12 02:22:51;;;;;;;20.23;18.73;;;;;;;;;;5125230;28;20094;-67
2022/09/12 02:25:23;;;;;;;19.70;18.20;;;;;;;;;;5154024;23;20122;-68
2022/09/12 02:27:57;;;;;;;22.33;20.45;;;;;;;;;;5155444;28;20084;-68
2022/09/12 02:30:30;;;;;;;21.60;19.58;;;;;;;;;;5163752;28;20486;-68
2022/09/12 02:33:05;;;;;;;19.60;17.60;;;;;;;;;;5161749;28;20034;-69
2022/09/12 02:35:42;;;;;;;21.50;19.50;;;;;;;;;;5162246;28;20367;-69
2022/09/12 02:38:23;;;;;;;20.70;19.02;;;;;;;;;;5158333;28;20042;-68
2022/09/12 02:40:54;;;;;;;20.40;18.70;;;;;;;;;;5141106;28;20475;-68
2022/09/12 02:43:24;;;;;;;21.80;19.80;;;;;;;;;;5182558;23;20129;-79
2022/09/12 02:45:54;;;;;;;20.52;18.80;;;;;;;;;;5190544;28;20026;-80
2022/09/12 02:48:33;;;;;;;20.70;18.70;;;;;;;;;;5193730;28;20076;-80
2022/09/12 02:51:04;;;;;;;19.57;18.00;;;;;;;;;;5200211;28;20021;-78
2022/09/12 02:53:35;;;;;;;24.05;22.05;;;;;;;;;;5199750;28;20040;-80
2022/09/12 02:56:06;;;;;;;21.08;19.05;;;;;;;;;;5199040;28;20076;-81
2022/09/12 02:58:37;;;;;;;19.70;17.83;;;;;;;;;;5199864;28;20090;-80
2022/09/12 03:01:26;;;;;;;21.63;19.77;;;;;;;;;;5199544;28;20018;-80
2022/09/12 03:03:56;;;;;;;24.88;20.88;;;;;;;;;;5196935;28;20030;-77
2022/09/12 03:06:33;;;;;;;19.73;18.13;;;;;;;;;;5193858;28;20381;-78
2022/09/12 03:09:13;;;;;;;19.70;18.15;;;;;;;;;;5193360;28;20268;-80
2022/09/12 03:11:58;;;;;;;21.15;19.30;;;;;;;;;;5192748;28;20072;-80
2022/09/12 03:14:37;;;;;;;23.05;21.08;;;;;;;;;;5192432;28;20029;-80
2022/09/12 03:17:20;;;;;;;22.43;20.63;;;;;;;;;;5191093;28;20029;-80
2022/09/12 03:19:58;;;;;;;20.60;18.88;;;;;;;;;;5192605;28;20361;-81
2022/09/12 03:22:47;;;;;;;21.00;19.33;;;;;;;;;;5192253;28;20503;-80
2022/09/12 03:25:20;;;;;;;20.95;19.20;;;;;;;;;;5192710;28;20021;-79
2022/09/12 03:27:58;;;;;;;20.80;18.67;;;;;;;;;;5191477;28;20369;-80
2022/09/12 03:30:28;;;;;;;18.73;17.23;;;;;;;;;;5191746;28;20021;-80
2022/09/12 03:32:58;;;;;;;18.20;16.50;;;;;;;;;;5193372;28;20041;-80
2022/09/12 03:35:29;;;;;;;18.83;17.15;;;;;;;;;;5196459;28;20295;-80
2022/09/12 03:37:59;;;;;;;19.73;18.13;;;;;;;;;;5196862;28;20021;-79
2022/09/12 03:40:29;;;;;;;21.27;19.57;;;;;;;;;;5197023;28;20347;-80
2022/09/12 03:43:00;;;;;;;20.63;18.95;;;;;;;;;;5195978;28;20288;-80
2022/09/12 03:45:30;;;;;;;22.38;20.27;;;;;;;;;;5193140;28;20018;-80
2022/09/12 03:48:00;;;;;;;21.90;19.90;;;;;;;;;;5196101;28;20149;-78
2022/09/12 03:50:31;;;;;;;22.75;20.73;;;;;;;;;;5194432;28;20396;-79
2022/09/12 03:53:02;;;;;;;21.08;19.13;;;;;;;;;;5191535;28;20409;-79
2022/09/12 03:55:32;;;;;;;21.92;19.95;;;;;;;;;;5188396;28;20369;-79
2022/09/12 03:58:02;;;;;;;24.70;22.50;;;;;;;;;;5190795;28;20440;-80
2022/09/12 04:00:32;;;;;;;20.80;18.87;;;;;;;;;;5190641;28;20022;-80
2022/09/12 04:03:02;;;;;;;21.50;19.67;;;;;;;;;;5190271;28;20763;-79
2022/09/12 04:05:34;;;;;;;23.07;21.17;;;;;;;;;;5188198;28;20050;-80
2022/09/12 04:08:04;;;;;;;25.33;23.17;;;;;;;;;;5190518;28;20323;-80
2022/09/12 04:10:34;;;;;;;22.35;19.98;;;;;;;;;;5190530;28;20030;-80
2022/09/12 04:13:05;;;;;;;23.77;21.73;;;;;;;;;;5193670;28;20018;-80
2022/09/12 04:15:35;;;;;;;22.90;20.70;;;;;;;;;;5195380;28;20257;-80
2022/09/12 04:18:05;;;;;;;19.75;18.23;;;;;;;;;;5193414;28;20033;-81
2022/09/12 04:20:35;;;;;;;24.63;22.53;;;;;;;;;;5190877;28;20049;-80
2022/09/12 04:23:06;;;;;;;22.95;20.92;;;;;;;;;;5190575;28;20276;-80
2022/09/12 04:25:36;;;;;;;22.37;20.57;;;;;;;;;;5190150;28;20029;-80
2022/09/12 04:28:06;;;;;;;23.53;21.50;;;;;;;;;;5190951;28;20272;-80
2022/09/12 04:30:36;;;;;;;24.33;21.87;;;;;;;;;;5190344;28;20283;-80
2022/09/12 04:33:07;;;;;;;22.88;20.95;;;;;;;;;;5169564;28;20632;-80
2022/09/12 04:35:37;;;;;;;21.90;20.00;;;;;;;;;;5169632;28;20026;-79
2022/09/12 04:38:08;;;;;;;24.55;22.23;;;;;;;;;;5170254;28;20643;-77
2022/09/12 04:40:38;;;;;;;22.92;20.63;;;;;;;;;;5170261;28;20026;-79
2022/09/12 04:43:08;;;;;;;23.95;21.65;;;;;;;;;;5172598;28;20061;-77
2022/09/12 04:45:39;;;;;;;23.73;21.58;;;;;;;;;;5202494;28;20090;-78
2022/09/12 04:48:09;;;;;;;25.88;23.70;;;;;;;;;;5208357;28;20078;-77
2022/09/12 04:50:39;;;;;;;25.40;23.20;;;;;;;;;;5203693;28;20022;-78
2022/09/12 04:53:10;;;;;;;25.20;22.80;;;;;;;;;;5203396;28;20093;-80
2022/09/12 04:55:40;;;;;;;23.88;21.65;;;;;;;;;;5195864;28;20434;-78
2022/09/12 04:58:11;;;;;;;26.48;24.05;;;;;;;;;;5198663;28;20022;-80
2022/09/12 05:00:41;;;;;;;24.00;21.88;;;;;;;;;;5197816;28;20026;-79
2022/09/12 05:03:11;;;;;;;26.70;23.92;;;;;;;;;;5196168;28;20073;-78
2022/09/12 05:05:41;;;;;;;24.03;21.00;;;;;;;;;;5199642;28;20017;-80
2022/09/12 05:08:11;;;;;;;25.10;23.00;;;;;;;;;;5194554;28;20762;-79
2022/09/12 05:10:44;;;;;;;29.77;26.33;;;;;;;;;;5211081;28;20283;-80
2022/09/12 05:13:15;;;;;;;24.23;21.88;;;;;;;;;;5193690;28;20599;-81
2022/09/12 05:15:53;;;;;;;28.55;25.83;;;;;;;;;;5194722;28;20049;-79
2022/09/12 05:18:23;;;;;;;24.40;22.00;;;;;;;;;;5194028;28;20459;-81
2022/09/12 05:20:54;;;;;;;28.85;25.95;;;;;;;;;;5195896;28;20041;-79
2022/09/12 05:23:24;;;;;;;28.77;24.02;;;;;;;;;;5209949;28;20061;-79
2022/09/12 05:25:56;;;;;;;24.20;21.92;;;;;;;;;;5195490;28;20487;-81
2022/09/12 05:28:31;;;;;;;25.35;23.30;;;;;;;;;;5195795;28;20088;-80
2022/09/12 05:31:06;;;;;;;26.20;23.90;;;;;;;;;;5194994;28;20071;-80
2022/09/12 05:33:37;;;;;;;29.00;26.35;;;;;;;;;;5192330;28;20502;-80
2022/09/12 05:36:12;;;;;;;29.42;26.55;;;;;;;;;;5193993;28;20112;-81
2022/09/12 05:38:42;;;;;;;24.38;22.17;;;;;;;;;;5194695;28;20068;-79
2022/09/12 05:41:14;;;;;;;28.02;24.38;;;;;;;;;;5195164;28;20017;-80
2022/09/12 05:43:45;;;;;;;33.15;27.40;;;;;;;;;;5209014;28;20030;-81
2022/09/12 05:46:16;;;;;;;28.50;24.70;;;;;;;;;;5193941;28;20033;-80
2022/09/12 05:48:47;;;;;;;27.98;25.58;;;;;;;;;;5193082;28;20022;-81
2022/09/12 05:51:19;;;;;;;29.27;26.73;;;;;;;;;;5194370;28;20041;-80
2022/09/12 05:53:51;;;;;;;27.45;24.77;;;;;;;;;;5192858;28;20026;-78
2022/09/12 05:56:23;;;;;;;26.48;24.05;;;;;;;;;;5193942;28;20404;-78
2022/09/12 05:58:53;;;;;;;32.28;28.95;;;;;;;;;;5192595;28;20018;-82
2022/09/12 06:01:24;;;;;;;28.55;25.83;;;;;;;;;;5193081;28;20051;-81
2022/09/12 06:03:56;;;;;;;27.35;25.00;;;;;;;;;;5192264;28;20014;-83
2022/09/12 06:06:27;;;;;;;28.92;26.45;;;;;;;;;;5194407;28;20028;-82
2022/09/12 06:08:59;;;;;;;31.23;28.02;;;;;;;;;;5193202;28;20092;-84
2022/09/12 06:11:30;;;;;;;26.60;23.77;;;;;;;;;;5193659;28;20022;-82
2022/09/12 06:14:01;;;;;;;24.88;22.38;;;;;;;;;;5191818;28;20045;-79
2022/09/12 06:16:32;;;;;;;36.08;29.02;;;;;;;;;;5194330;28;20022;-82
2022/09/12 06:19:06;;;;;;;30.83;27.75;;;;;;;;;;5194102;28;20022;-81
2022/09/12 06:21:37;;;;;;;29.83;25.77;;;;;;;;;;5193073;28;20148;-81
2022/09/12 06:24:08;;;;;;;35.03;24.08;;;;;;;;;;5193280;28;20010;-81
2022/09/12 06:26:38;;;;;;;25.48;22.95;;;;;;;;;;5196996;28;20085;-81
2022/09/12 06:29:12;;;;;;;27.92;25.27;;;;;;;;;;5196472;28;20488;-81
2022/09/12 06:31:42;;;;;;;31.48;28.15;;;;;;;;;;5194625;28;20018;-82
2022/09/12 06:34:13;;;;;;;30.50;27.90;;;;;;;;;;5193988;28;20043;-82
2022/09/12 06:36:45;;;;;;;30.52;27.38;;;;;;;;;;5193258;28;20479;-80
2022/09/12 06:39:17;;;;;;;28.13;25.55;;;;;;;;;;5190853;28;20457;-82
2022/09/12 06:41:50;;;;;;;29.33;26.35;;;;;;;;;;5190606;28;20486;-80
2022/09/12 06:44:21;;;;;;;29.23;26.50;;;;;;;;;;5190666;28;20034;-81
2022/09/12 06:46:52;;;;;;;26.30;23.90;;;;;;;;;;5189221;28;20037;-81
2022/09/12 06:49:23;;;;;;;30.05;26.58;;;;;;;;;;5191954;28;20024;-81
2022/09/12 06:51:53;;;;;;;25.70;23.30;;;;;;;;;;5192406;28;20511;-81
2022/09/12 06:54:25;;;;;;;30.03;27.17;;;;;;;;;;5191711;28;20472;-80
2022/09/12 06:56:55;;;;;;;26.10;23.60;;;;;;;;;;5190527;28;20303;-80
2022/09/12 06:59:25;;;;;;;28.75;25.92;;;;;;;;;;5192950;28;20010;-82
2022/09/12 07:01:56;;;;;;;24.98;22.70;;;;;;;;;;5192549;28;20484;-81
2022/09/12 07:04:26;;;;;;;26.63;24.23;;;;;;;;;;5191019;28;20022;-81
2022/09/12 07:06:57;;;;;;;27.80;22.83;;;;;;;;;;5189461;28;20041;-81
2022/09/12 07:09:29;;;;;;;25.35;22.90;;;;;;;;;;5189265;28;20026;-82
2022/09/12 07:12:03;;;;;;;27.35;24.88;;;;;;;;;;5190901;28;20021;-81
2022/09/12 07:14:33;;;;;;;22.42;20.23;;;;;;;;;;5188748;28;20487;-82
2022/09/12 07:17:06;;;;;;;24.70;21.42;;;;;;;;;;5191873;28;20021;-82
2022/09/12 07:19:36;;;;;;;22.25;20.15;;;;;;;;;;5191282;28;20025;-78
2022/09/12 07:22:06;;;;;;;23.23;21.13;;;;;;;;;;5192340;28;20025;-82
2022/09/12 07:24:37;;;;;;;24.90;22.60;;;;;;;;;;5191576;28;20058;-82
2022/09/12 07:27:08;;;;;;;22.50;20.42;;;;;;;;;;5193775;28;20022;-82
2022/09/12 07:29:38;;;;;;;22.58;20.17;;;;;;;;;;5193766;28;20034;-83
2022/09/12 07:32:08;;;;;;;20.92;18.73;;;;;;;;;;5193127;28;20052;-82
2022/09/12 07:34:39;;;;;;;21.73;19.77;;;;;;;;;;5191103;28;20022;-82
2022/09/12 07:37:09;;;;;;;19.98;18.20;;;;;;;;;;5193287;28;20643;-78
2022/09/12 07:39:39;;;;;;;20.55;18.00;;;;;;;;;;5190650;28;20014;-80
2022/09/12 07:42:11;;;;;;;17.50;16.02;;;;;;;;;;5194496;28;20053;-79
2022/09/12 07:44:41;;;;;;;18.65;17.02;;;;;;;;;;5193460;28;20022;-80
2022/09/12 07:47:12;;;;;;;17.17;15.68;;;;;;;;;;5195872;28;20026;-81
2022/09/12 07:49:42;;;;;;;16.35;14.85;;;;;;;;;;5196786;28;20018;-81
2022/09/12 07:52:12;;;;;;;15.70;14.38;;;;;;;;;;5200119;28;20026;-81
2022/09/12 07:54:43;;;;;;;14.88;13.60;;;;;;;;;;5201366;28;20025;-82
2022/09/12 07:57:14;;;;;;;15.00;13.80;;;;;;;;;;5193731;28;20026;-83
2022/09/12 07:59:46;;;;;;;13.23;12.05;;;;;;;;;;5192760;28;20042;-84
2022/09/12 08:02:16;;;;;;;14.45;13.13;;;;;;;;;;5191774;28;20386;-83
2022/09/12 08:04:47;;;;;;;15.07;13.87;;;;;;;;;;5193330;28;20029;-83
2022/09/12 08:07:18;;;;;;;11.93;10.80;;;;;;;;;;5193886;28;20300;-83
2022/09/12 08:09:48;;;;;;;13.80;12.70;;;;;;;;;;5192664;28;20045;-83
2022/09/12 08:12:19;;;;;;;12.80;11.50;;;;;;;;;;5194217;28;20030;-82
2022/09/12 08:14:49;;;;;;;14.25;11.05;;;;;;;;;;5191745;28;20277;-80
2022/09/12 08:17:19;;;;;;;15.23;12.27;;;;;;;;;;5193509;28;20021;-80
2022/09/12 08:19:50;;;;;;;13.38;12.15;;;;;;;;;;5210552;28;20048;-82
2022/09/12 08:22:20;;;;;;;18.52;13.80;;;;;;;;;;5192365;28;20021;-82
2022/09/12 08:24:51;;;;;;;12.70;11.75;;;;;;;;;;5191759;28;20089;-82
2022/09/12 08:27:21;;;;;;;11.77;10.75;;;;;;;;;;5193458;28;20026;-83
2022/09/12 08:29:52;;;;;;;11.87;10.63;;;;;;;;;;5192973;28;20033;-83
2022/09/12 08:32:22;;;;;;;11.77;10.88;;;;;;;;;;5191700;28;20279;-83
2022/09/12 08:34:53;;;;;;;10.83;9.97;;;;;;;;;;5192072;28;20073;-83
2022/09/12 08:37:23;;;;;;;9.73;9.00;;;;;;;;;;5191460;28;20289;-83
2022/09/12 08:39:53;;;;;;;9.37;8.67;;;;;;;;;;5194842;28;20065;-83
2022/09/12 08:42:38;;;;;;;10.00;9.30;;;;;;;;;;5194575;28;20758;-85
2022/09/12 08:45:09;;;;;;;10.98;9.98;;;;;;;;;;5217635;22;20046;-81
2022/09/12 08:47:40;;;;;;;9.90;9.10;;;;;;;;;;5192500;28;20025;-80
2022/09/12 08:50:10;;;;;;;9.48;8.77;;;;;;;;;;5192399;28;20030;-80
2022/09/12 08:53:02;;;;;;;9.23;8.33;;;;;;;;;;5179147;28;20029;-81
2022/09/12 08:55:38;;;;;;;7.80;7.22;;;;;;;;;;5169418;28;20325;-80
2022/09/12 08:58:19;;;;;;;6.75;5.60;;;;;;;;;;5171559;28;20488;-80
2022/09/12 09:00:55;;;;;;;7.32;6.70;;;;;;;;;;5168423;28;20042;-81
2022/09/12 09:03:39;;;;;;;7.82;7.22;;;;;;;;;;5166263;28;20022;-80
2022/09/12 09:06:19;;;;;;;8.48;7.95;;;;;;;;;;5168329;28;20049;-81
2022/09/12 09:08:50;;;;;;;6.18;5.78;;;;;;;;;;5168939;28;20023;-81
2022/09/12 09:11:32;;;;;;;6.57;6.27;;;;;;;;;;5168405;28;20547;-82
2022/09/12 09:16:58;;;;;;;6.03;5.63;;;;;;;;;;5167778;28;20033;-82
2022/09/12 09:19:47;;;;;;;5.97;5.57;;;;;;;;;;5168037;28;20019;-81
2022/09/12 09:22:27;;;;;;;6.20;5.80;;;;;;;;;;5167959;28;20019;-81
2022/09/12 09:25:04;;;;;;;5.97;5.40;;;;;;;;;;5167194;28;20022;-81
2022/09/12 09:28:02;;;;;;;5.90;5.40;;;;;;;;;;5167148;28;20180;-81
2022/09/12 09:30:34;;;;;;;10.82;5.55;;;;;;;;;;5166627;28;20035;-81
2022/09/12 09:33:05;;;;;;;5.85;5.40;;;;;;;;;;5166663;28;20065;-81
2022/09/12 09:35:54;;;;;;;3.90;3.63;;;;;;;;;;5167099;28;20476;-81
2022/09/12 09:38:43;;;;;;;6.72;5.30;;;;;;;;;;5168042;28;20026;-81
2022/09/12 09:41:19;;;;;;;4.75;4.28;;;;;;;;;;5167579;28;20022;-82
2022/09/12 09:43:49;;;;;;;5.70;5.28;;;;;;;;;;5169101;28;20022;-81
2022/09/12 09:46:19;;;;;;;4.57;4.18;;;;;;;;;;5172456;28;20029;-81
2022/09/12 09:48:50;;;;;;;4.50;4.23;;;;;;;;;;5170843;28;20033;-83
2022/09/12 09:51:24;;;;;;;3.63;3.47;;;;;;;;;;5170123;28;20253;-81
2022/09/12 09:53:55;;;;;;;4.72;4.45;;;;;;;;;;5170981;28;20072;-82
2022/09/12 09:56:35;;;;;;;7.55;4.68;;;;;;;;;;5171925;28;20480;-81
2022/09/12 09:59:10;;;;;;;5.25;4.85;;;;;;;;;;5171095;28;20021;-82
2022/09/12 10:01:45;;;;;;;3.90;3.70;;;;;;;;;;5170453;28;20038;-82
2022/09/12 10:04:20;;;;;;;4.10;3.75;;;;;;;;;;5170504;28;20022;-82
2022/09/12 10:06:52;;;;;;;7.07;3.83;;;;;;;;;;5171158;28;20033;-81
2022/09/12 10:09:26;;;;;;;3.35;3.20;;;;;;;;;;5170573;28;20041;-82
2022/09/12 10:11:57;;;;;;;4.28;4.07;;;;;;;;;;5171080;28;20030;-81
2022/09/12 10:14:27;;;;;;;3.55;3.25;;;;;;;;;;5170898;28;20053;-81
2022/09/12 10:16:58;;;;;;;4.07;3.87;;;;;;;;;;5171149;28;20028;-82
2022/09/12 10:19:39;;;;;;;5.18;4.43;;;;;;;;;;5171208;28;20269;-81
2022/09/12 10:22:14;;;;;;;5.40;5.10;;;;;;;;;;5170416;28;20050;-81
2022/09/12 10:24:51;;;;;;;3.78;3.58;;;;;;;;;;5170184;28;20038;-81
2022/09/12 10:27:23;;;;;;;4.32;4.03;;;;;;;;;;5169885;28;20436;-82
2022/09/12 10:29:55;;;;;;;3.50;3.30;;;;;;;;;;5170960;28;20049;-82
2022/09/12 10:32:28;;;;;;;3.38;3.15;;;;;;;;;;5171044;28;20512;-82
2022/09/12 10:35:00;;;;;;;5.55;4.97;;;;;;;;;;5169710;28;20022;-82
2022/09/12 10:37:32;;;;;;;4.22;3.80;;;;;;;;;;5170117;28;20022;-82
2022/09/12 10:40:04;;;;;;;4.65;3.97;;;;;;;;;;5171052;28;20472;-81
2022/09/12 10:42:51;;;;;;;4.50;3.78;;;;;;;;;;5170823;28;20496;-82
2022/09/12 10:45:21;;;;;;;4.38;4.07;;;;;;;;;;5168840;28;20027;-82
2022/09/12 10:47:53;;;;;;;7.70;4.03;;;;;;;;;;5171058;28;20029;-82
2022/09/12 10:50:28;;;;;;;4.10;3.80;;;;;;;;;;5185441;28;20269;-81
2022/09/12 10:53:12;;;;;;;4.60;4.15;;;;;;;;;;5196797;28;20044;-82
2022/09/12 10:55:58;;;;;;;2.72;2.63;;;;;;;;;;5196609;28;20022;-81
2022/09/12 10:58:40;;;;;;;3.65;3.17;;;;;;;;;;5195507;28;20018;-79
2022/09/12 11:01:13;;;;;;;4.35;3.30;;;;;;;;;;5195289;28;20076;-80
2022/09/12 11:04:02;;;;;;;3.47;3.28;;;;;;;;;;5195922;28;20018;-80
2022/09/12 11:06:50;;;;;;;3.92;3.75;;;;;;;;;;5196192;28;20026;-80
2022/09/12 11:09:26;;;;;;;3.83;3.63;;;;;;;;;;5194010;28;20053;-80
2022/09/12 11:12:13;;;;;;;3.30;3.10;;;;;;;;;;5177667;28;20099;-80
2022/09/12 11:14:43;;;;;;;3.05;2.80;;;;;;;;;;5177033;28;20026;-80
2022/09/12 11:17:21;;;;;;;4.33;4.10;;;;;;;;;;5177914;28;20030;-80
2022/09/12 11:20:08;;;;;;;4.18;3.88;;;;;;;;;;5178340;28;20371;-80
2022/09/12 11:22:51;;;;;;;2.90;2.80;;;;;;;;;;5173743;28;20019;-80
2022/09/12 11:25:30;;;;;;;3.00;2.90;;;;;;;;;;5171410;28;20022;-81
2022/09/12 11:28:12;;;;;;;3.83;3.58;;;;;;;;;;5176660;28;20078;-80
2022/09/12 11:31:01;;;;;;;4.00;3.75;;;;;;;;;;5177365;28;20022;-80
2022/09/12 11:33:45;;;;;;;3.17;2.90;;;;;;;;;;5176228;28;20030;-80
2022/09/12 11:36:15;;;;;;;3.25;3.05;;;;;;;;;;5175419;28;20037;-80
2022/09/12 11:39:04;;;;;;;2.93;2.83;;;;;;;;;;5175624;28;20022;-80
2022/09/12 11:41:36;;;;;;;2.88;2.67;;;;;;;;;;5173496;28;20027;-81
2022/09/12 11:44:09;;;;;;;2.90;2.80;;;;;;;;;;5170262;28;20264;-81
2022/09/12 11:46:41;;;;;;;2.38;2.28;;;;;;;;;;5171389;28;20424;-81
2022/09/12 11:49:15;;;;;;;2.38;2.28;;;;;;;;;;5169851;28;20025;-81
2022/09/12 11:51:51;;;;;;;3.10;2.90;;;;;;;;;;5171676;28;20028;-81
2022/09/12 11:54:25;;;;;;;2.50;2.40;;;;;;;;;;5169810;28;20066;-81
2022/09/12 11:57:10;;;;;;;3.05;2.78;;;;;;;;;;5174968;28;20033;-81
2022/09/12 12:00:01;;;;;;;3.03;2.83;;;;;;;;;;5168751;28;20464;-81
2022/09/12 12:02:38;;;;;;;4.57;4.28;;;;;;;;;;5157344;28;20037;-81
2022/09/12 12:05:24;;;;;;;2.60;2.50;;;;;;;;;;5167051;28;20029;-81
2022/09/12 12:07:55;;;;;;;2.47;2.38;;;;;;;;;;5168056;28;20022;-82
2022/09/12 12:10:26;;;;;;;2.63;2.53;;;;;;;;;;5168092;28;20214;-81
2022/09/12 12:12:56;;;;;;;2.95;2.85;;;;;;;;;;5167515;28;20018;-81
2022/09/12 12:15:28;;;;;;;2.97;2.88;;;;;;;;;;5167656;28;20033;-82
2022/09/12 12:18:03;;;;;;;4.30;3.00;;;;;;;;;;5167833;28;20061;-81
2022/09/12 12:20:34;;;;;;;3.17;3.08;;;;;;;;;;5167649;28;20068;-81
2022/09/12 12:23:04;;;;;;;3.03;2.92;;;;;;;;;;5168154;28;20121;-81
2022/09/12 12:25:39;;;;;;;3.50;3.03;;;;;;;;;;5169591;28;20022;-81
2022/09/12 12:28:09;;;;;;;3.22;2.92;;;;;;;;;;5171330;28;20086;-83
2022/09/12 12:30:52;;;;;;;3.13;3.00;;;;;;;;;;5169315;28;20062;-81
2022/09/12 12:33:42;;;;;;;7.55;3.20;;;;;;;;;;5168610;28;20115;-82
2022/09/12 12:36:29;;;;;;;3.08;2.83;;;;;;;;;;5169290;28;20030;-81
2022/09/12 12:39:19;;;;;;;3.10;3.00;;;;;;;;;;5170745;28;20030;-82
2022/09/12 12:41:50;;;;;;;3.33;3.13;;;;;;;;;;5170506;28;20392;-82
2022/09/12 12:44:40;;;;;;;2.90;2.77;;;;;;;;;;5167880;28;20023;-82
2022/09/12 12:47:16;;;;;;;3.20;3.03;;;;;;;;;;5170422;28;20351;-82
2022/09/12 12:50:07;;;;;;;2.90;2.70;;;;;;;;;;5169902;28;20042;-81
2022/09/12 12:52:56;;;;;;;3.08;2.95;;;;;;;;;;5165973;28;20027;-82
2022/09/12 12:55:41;;;;;;;3.00;2.80;;;;;;;;;;5169154;28;20488;-82
2022/09/12 12:58:24;;;;;;;2.53;2.40;;;;;;;;;;5169578;28;20026;-82
2022/09/12 13:01:08;;;;;;;2.50;2.40;;;;;;;;;;5170524;28;20030;-82
2022/09/12 13:03:43;;;;;;;4.78;3.55;;;;;;;;;;5170347;28;20077;-81
2022/09/12 13:06:23;;;;;;;5.10;4.70;;;;;;;;;;5171418;28;20026;-82
2022/09/12 13:08:58;;;;;;;2.45;2.28;;;;;;;;;;5170110;28;20192;-82
2022/09/12 13:11:39;;;;;;;3.47;3.28;;;;;;;;;;5169571;28;20101;-85
2022/09/12 13:14:28;;;;;;;2.47;2.28;;;;;;;;;;5169384;28;20015;-86
2022/09/12 13:16:59;;;;;;;3.08;2.90;;;;;;;;;;5168257;28;20026;-83
2022/09/12 13:19:34;;;;;;;1.95;1.88;;;;;;;;;;5172102;28;20022;-82
2022/09/12 13:22:05;;;;;;;2.90;2.72;;;;;;;;;;5178941;28;20049;-82
2022/09/12 13:24:43;;;;;;;2.75;2.65;;;;;;;;;;5190823;28;20020;-82
2022/09/12 13:27:18;;;;;;;2.55;2.35;;;;;;;;;;5176855;28;20037;-82
2022/09/12 13:29:48;;;;;;;2.03;2.00;;;;;;;;;;5172640;28;20384;-84
2022/09/12 13:32:19;;;;;;;3.10;2.90;;;;;;;;;;5172878;28;20049;-82
2022/09/12 13:35:12;;;;;;;2.65;2.45;;;;;;;;;;5175742;28;20023;-85
2022/09/12 13:37:47;;;;;;;3.03;2.42;;;;;;;;;;5169294;28;20516;-84
2022/09/12 13:40:30;;;;;;;3.17;2.97;;;;;;;;;;5184794;28;20044;-84
2022/09/12 13:43:14;;;;;;;2.50;2.40;;;;;;;;;;5187452;28;20041;-84
2022/09/12 13:45:45;;;;;;;3.08;2.30;;;;;;;;;;5178488;28;20388;-83
2022/09/12 13:48:18;;;;;;;3.35;3.15;;;;;;;;;;5174422;28;20029;-83
2022/09/12 13:50:56;;;;;;;5.75;3.88;;;;;;;;;;5176869;28;20516;-84
2022/09/12 13:53:46;;;;;;;12.43;2.63;;;;;;;;;;5192066;28;20025;-84
2022/09/12 13:56:17;;;;;;;2.28;2.17;;;;;;;;;;5186014;28;20030;-84
2022/09/12 13:59:01;;;;;;;2.30;2.20;;;;;;;;;;5173446;28;20018;-84
2022/09/12 14:01:44;;;;;;;23.85;3.33;;;;;;;;;;5173351;28;20045;-83
2022/09/12 14:07:14;;;;;;;2.90;2.53;;;;;;;;;;5174554;28;20559;-83
2022/09/12 14:09:46;;;;;;;3.55;2.38;;;;;;;;;;5173912;28;20030;-83
2022/09/12 14:12:24;;;;;;;2.25;2.15;;;;;;;;;;5172664;28;20026;-82
2022/09/12 14:14:54;;;;;;;2.65;2.45;;;;;;;;;;5179929;28;20047;-83
2022/09/12 14:17:28;;;;;;;2.33;2.22;;;;;;;;;;5194012;28;20113;-83
2022/09/12 14:20:06;;;;;;;2.78;2.67;;;;;;;;;;5196506;28;20022;-83
2022/09/12 14:22:37;;;;;;;2.30;2.20;;;;;;;;;;5194545;28;20024;-84
2022/09/12 14:25:15;;;;;;;2.25;2.15;;;;;;;;;;5192458;28;20022;-83
2022/09/12 14:27:52;;;;;;;2.65;2.55;;;;;;;;;;5191779;28;20571;-84
2022/09/12 14:30:29;;;;;;;2.08;1.98;;;;;;;;;;5191424;28;20029;-84
2022/09/12 14:33:08;;;;;;;2.42;2.33;;;;;;;;;;5192341;28;20701;-84
2022/09/12 14:35:39;;;;;;;2.58;2.38;;;;;;;;;;5191166;28;20026;-84
2022/09/12 14:38:15;;;;;;;2.70;2.60;;;;;;;;;;5192952;28;20026;-84
2022/09/12 14:40:49;;;;;;;2.20;2.10;;;;;;;;;;5191269;28;20117;-84
2022/09/12 14:43:23;;;;;;;2.70;2.50;;;;;;;;;;5191622;28;20021;-84
2022/09/12 14:45:54;;;;;;;3.05;2.20;;;;;;;;;;5192326;28;20029;-84
2022/09/12 14:48:26;;;;;;;1.92;1.83;;;;;;;;;;5193479;28;20015;-84
2022/09/12 14:50:57;;;;;;;2.17;2.08;;;;;;;;;;5191562;28;20018;-84
2022/09/12 14:53:31;;;;;;;4.88;2.30;;;;;;;;;;5179517;23;20053;-79
2022/09/12 14:56:09;;;;;;;2.55;2.08;;;;;;;;;;5147350;28;20480;-78
2022/09/12 14:58:39;;;;;;;1.60;1.60;;;;;;;;;;5147203;28;20541;-79
2022/09/12 15:01:09;;;;;;;2.20;2.15;;;;;;;;;;5147857;28;20107;-79
2022/09/12 15:03:40;;;;;;;1.70;1.60;;;;;;;;;;5145229;28;20556;-79
2022/09/12 15:06:22;;;;;;;3.43;3.17;;;;;;;;;;5147285;28;20266;-79
2022/09/12 15:12:01;;;;;;;2.03;1.98;;;;;;;;;;5348199;23;20059;-65
2022/09/12 15:14:31;;;;;;;2.67;2.53;;;;;;;;;;5143784;28;20080;-66
2022/09/12 15:17:01;;;;;;;1.70;1.60;;;;;;;;;;5143709;28;20430;-66
2022/09/12 15:19:31;;;;;;;2.63;2.40;;;;;;;;;;5144059;28;20707;-66
2022/09/12 15:22:01;;;;;;;2.40;2.27;;;;;;;;;;5144080;28;20753;-66